Pollok, Texas
Current Conditions -  °F | °C
As of 9:55 PM on Saturday 22 Nov 2014 (Local Time) from KOCH Reporting Station
Broken Clouds Broken Clouds  
Wind Chill: 63°   Ceiling: 3000
Heat Index: 63°   Visibility: 5mi
Dew Point: 61°   Wind: 6mph
Humidity: 94%   Direction: 80°E
Pressure: 29.8"   Gusts: NA
Location:  31.45°N, 94.87°W
Report Text: KOCH 230355Z AUTO 08005KT 5SM FEW010 SCT014 BKN030 17/16 A2980 RMK AO1 TSE09 P0066
Loading
Personal Weather Stations






























Interactive Weather Map New forecast layout! Learn more

10-Day Weather Forecast

Advertisements
Track Severe Weather on mobile